createdAt,value
2022-08-11T00:02:01.843Z,22.20
2022-08-11T00:04:37.217Z,22.10
2022-08-11T00:07:06.970Z,22.00
2022-08-11T00:09:39.737Z,21.90
2022-08-11T00:12:18.863Z,21.80
2022-08-11T00:14:58.417Z,21.80
2022-08-11T00:17:34.016Z,21.70
2022-08-11T00:20:16.739Z,21.70
2022-08-11T00:22:48.322Z,21.60
2022-08-11T00:25:20.617Z,21.60
2022-08-11T00:27:49.374Z,21.70
2022-08-11T00:30:17.867Z,21.80
2022-08-11T00:32:56.505Z,21.80
2022-08-11T00:35:51.454Z,21.80
2022-08-11T00:38:25.393Z,21.80
2022-08-11T00:41:16.840Z,21.70
2022-08-11T00:44:12.209Z,21.60
2022-08-11T00:47:03.570Z,21.60
2022-08-11T00:50:13.441Z,21.50
2022-08-11T00:53:26.594Z,21.40
2022-08-11T00:56:09.064Z,21.30
2022-08-11T00:59:34.337Z,21.30
2022-08-11T01:02:06.101Z,21.30
2022-08-11T01:04:57.258Z,21.30
2022-08-11T01:08:30.236Z,21.20
2022-08-11T01:11:39.143Z,21.20
2022-08-11T01:15:03.235Z,21.20
2022-08-11T01:18:17.408Z,21.10
2022-08-11T01:21:35.404Z,21.10
2022-08-11T01:24:43.236Z,21.10
2022-08-11T01:27:19.562Z,21.10
2022-08-11T01:30:25.063Z,21.00
2022-08-11T01:33:39.463Z,20.90
2022-08-11T01:36:53.585Z,20.90
2022-08-11T01:39:46.327Z,20.80
2022-08-11T01:42:59.854Z,20.70
2022-08-11T01:45:59.619Z,20.70
2022-08-11T01:49:00.626Z,20.70
2022-08-11T01:52:34.839Z,20.70
2022-08-11T01:55:27.074Z,20.60
2022-08-11T01:58:16.751Z,20.50
2022-08-11T02:01:24.603Z,20.50
2022-08-11T02:04:32.173Z,20.50
2022-08-11T02:07:27.466Z,20.40
2022-08-11T02:10:42.708Z,20.40
2022-08-11T02:14:14.880Z,20.40
2022-08-11T02:17:22.629Z,20.30
2022-08-11T02:20:18.079Z,20.30
2022-08-11T02:24:05.578Z,20.30
2022-08-11T02:26:31.884Z,20.30
2022-08-11T02:30:05.189Z,20.20
2022-08-11T02:33:14.829Z,20.10
2022-08-11T02:36:25.092Z,20.10
2022-08-11T02:39:03.668Z,19.90
2022-08-11T02:42:05.516Z,19.80
2022-08-11T02:45:09.853Z,19.80
2022-08-11T02:48:07.046Z,19.80
2022-08-11T02:51:22.101Z,19.60
2022-08-11T02:54:32.705Z,19.60
2022-08-11T02:57:12.266Z,19.60
2022-08-11T03:00:10.501Z,19.50
2022-08-11T03:02:49.773Z,19.50
2022-08-11T03:05:57.401Z,19.40
2022-08-11T03:08:51.333Z,19.30
2022-08-11T03:12:08.265Z,19.30
2022-08-11T03:15:51.773Z,19.20
2022-08-11T03:18:41.274Z,19.20
2022-08-11T03:22:01.694Z,19.10
2022-08-11T03:25:03.305Z,19.10
2022-08-11T03:28:05.833Z,18.90
2022-08-11T03:30:55.716Z,19.00
2022-08-11T03:33:52.508Z,18.90
2022-08-11T03:37:48.588Z,18.90
2022-08-11T03:40:37.954Z,18.80
2022-08-11T03:43:26.797Z,18.70
2022-08-11T03:46:24.556Z,18.70
2022-08-11T03:49:31.507Z,18.80
2022-08-11T03:52:38.044Z,18.80
2022-08-11T03:55:32.125Z,18.80
2022-08-11T03:58:18.625Z,18.80
2022-08-11T04:01:32.484Z,18.80
2022-08-11T04:04:56.268Z,18.80
2022-08-11T04:08:01.285Z,18.70
2022-08-11T04:10:47.725Z,18.70
2022-08-11T04:14:22.116Z,18.70
2022-08-11T04:17:27.150Z,18.70
2022-08-11T04:20:16.154Z,18.70
2022-08-11T04:24:36.589Z,18.60
2022-08-11T04:26:41.712Z,18.60
2022-08-11T04:29:36.306Z,18.60
2022-08-11T04:32:42.098Z,18.60
2022-08-11T04:35:51.009Z,18.60
2022-08-11T04:39:20.244Z,18.60
2022-08-11T04:42:58.208Z,18.60
2022-08-11T04:45:56.501Z,18.60
2022-08-11T04:49:04.047Z,18.60
2022-08-11T04:52:12.941Z,18.60
2022-08-11T04:55:24.134Z,18.60
2022-08-11T04:58:21.840Z,18.60
2022-08-11T05:01:43.460Z,18.60
2022-08-11T05:05:07.448Z,18.70
2022-08-11T05:08:03.523Z,18.70
2022-08-11T05:11:25.142Z,18.80
2022-08-11T05:14:32.174Z,18.80
2022-08-11T05:17:59.457Z,18.80
2022-08-11T05:20:46.903Z,18.90
2022-08-11T05:23:35.435Z,18.90
2022-08-11T05:26:46.183Z,19.00
2022-08-11T05:30:07.560Z,19.10
2022-08-11T05:33:03.819Z,19.20
2022-08-11T05:36:03.149Z,19.20
2022-08-11T05:38:54.789Z,19.30
2022-08-11T05:41:45.774Z,19.30
2022-08-11T05:44:39.448Z,19.40
2022-08-11T05:47:26.683Z,19.40
2022-08-11T05:50:15.317Z,19.40
2022-08-11T05:53:09.332Z,19.50
2022-08-11T05:56:04.146Z,19.50
2022-08-11T05:58:43.720Z,19.60
2022-08-11T06:01:21.570Z,19.70
2022-08-11T06:04:11.898Z,19.70
2022-08-11T06:07:09.401Z,19.80
2022-08-11T06:09:44.492Z,19.90
2022-08-11T06:12:24.382Z,19.90
2022-08-11T06:14:57.150Z,20.00
2022-08-11T06:17:38.401Z,20.00
2022-08-11T06:20:12.460Z,20.00
2022-08-11T06:22:48.526Z,20.10
2022-08-11T06:25:20.292Z,20.10
2022-08-11T06:27:56.534Z,20.20
2022-08-11T06:30:44.178Z,20.30
2022-08-11T06:33:29.604Z,20.30
2022-08-11T06:36:24.355Z,20.40
2022-08-11T06:39:20.390Z,20.40
2022-08-11T06:42:03.414Z,20.50
2022-08-11T06:45:11.622Z,20.50
2022-08-11T06:47:49.803Z,20.50
2022-08-11T06:50:39.978Z,20.50
2022-08-11T06:53:10.697Z,20.60
2022-08-11T06:56:04.182Z,20.70
2022-08-11T06:58:55.042Z,20.70
2022-08-11T07:02:05.748Z,20.70
2022-08-11T07:04:43.268Z,20.80
2022-08-11T07:08:33.918Z,20.90
2022-08-11T07:11:39.597Z,20.90
2022-08-11T07:14:27.103Z,20.90
2022-08-11T07:17:02.843Z,20.90
2022-08-11T07:19:51.014Z,20.90
2022-08-11T07:22:44.685Z,20.90
2022-08-11T07:25:36.968Z,21.00
2022-08-11T07:28:41.810Z,21.10
2022-08-11T07:31:42.294Z,21.20
2022-08-11T07:34:38.177Z,21.30
2022-08-11T07:37:16.301Z,21.30
2022-08-11T07:39:47.613Z,21.40
2022-08-11T07:42:23.791Z,21.50
2022-08-11T07:45:14.556Z,21.50
2022-08-11T07:48:05.374Z,21.60
2022-08-11T07:50:56.213Z,21.60
2022-08-11T07:53:25.620Z,21.70
2022-08-11T07:55:58.058Z,21.80
2022-08-11T07:58:53.399Z,21.90
2022-08-11T08:01:45.112Z,22.00
2022-08-11T08:04:36.214Z,22.00
2022-08-11T08:07:26.678Z,22.10
2022-08-11T08:10:16.237Z,22.20
2022-08-11T08:13:04.151Z,22.30
2022-08-11T08:15:51.245Z,22.30
2022-08-11T08:18:27.766Z,22.40
2022-08-11T08:21:12.535Z,22.40
2022-08-11T08:23:46.870Z,22.40
2022-08-11T08:26:35.598Z,22.50
2022-08-11T08:29:26.256Z,22.50
2022-08-11T08:31:56.780Z,22.50
2022-08-11T08:34:25.349Z,22.60
2022-08-11T08:36:58.341Z,22.70
2022-08-11T08:39:31.742Z,22.70
2022-08-11T08:42:03.973Z,22.80
2022-08-11T08:44:40.878Z,22.90
2022-08-11T08:47:42.678Z,23.00
2022-08-11T08:50:16.446Z,23.00
2022-08-11T08:53:05.791Z,23.10
2022-08-11T08:55:35.055Z,23.30
2022-08-11T08:58:03.781Z,23.30
2022-08-11T09:00:43.220Z,23.40
2022-08-11T09:03:38.922Z,23.50
2022-08-11T09:06:01.186Z,23.50
2022-08-11T09:08:33.577Z,23.60
2022-08-11T09:11:23.643Z,23.70
2022-08-11T09:14:06.611Z,23.80
2022-08-11T09:16:39.416Z,23.90
2022-08-11T09:19:09.199Z,24.00
2022-08-11T09:21:48.913Z,24.00
2022-08-11T09:24:38.583Z,24.10
2022-08-11T09:27:11.916Z,24.10
2022-08-11T09:29:40.577Z,24.20
2022-08-11T09:32:09.509Z,24.30
2022-08-11T09:34:39.480Z,24.30
2022-08-11T09:37:54.356Z,24.40
2022-08-11T09:40:29.888Z,24.50
2022-08-11T09:43:21.822Z,24.60
2022-08-11T09:45:56.018Z,24.70
2022-08-11T09:48:29.387Z,24.70
2022-08-11T09:51:01.706Z,24.80
2022-08-11T09:53:41.019Z,24.90
2022-08-11T09:56:47.892Z,24.90
2022-08-11T09:59:21.328Z,24.90
2022-08-11T10:02:00.327Z,25.00
2022-08-11T10:04:42.532Z,25.10
2022-08-11T10:07:14.847Z,25.20
2022-08-11T10:09:53.459Z,25.20
2022-08-11T10:12:36.229Z,25.30
2022-08-11T10:16:01.531Z,25.40
2022-08-11T10:18:42.467Z,25.40
2022-08-11T10:21:42.203Z,25.50
2022-08-11T10:24:30.565Z,25.50
2022-08-11T10:27:00.687Z,25.60
2022-08-11T10:30:01.084Z,25.70
2022-08-11T10:32:58.748Z,25.70
2022-08-11T10:35:30.594Z,25.70
2022-08-11T10:38:08.784Z,25.80
2022-08-11T10:40:45.494Z,25.80
2022-08-11T10:44:01.343Z,25.80
2022-08-11T10:46:29.848Z,25.80
2022-08-11T10:49:00.399Z,25.90
2022-08-11T10:51:50.830Z,25.90
2022-08-11T10:54:41.435Z,26.00
2022-08-11T10:57:28.677Z,26.00
2022-08-11T10:59:57.828Z,26.10
2022-08-11T11:02:27.537Z,26.10
2022-08-11T11:05:24.981Z,26.20
2022-08-11T11:08:23.918Z,26.20
2022-08-11T11:10:52.542Z,26.20
2022-08-11T11:13:42.952Z,26.20
2022-08-11T11:16:42.590Z,26.20
2022-08-11T11:19:12.237Z,26.20
2022-08-11T11:21:42.334Z,26.20
2022-08-11T11:24:58.908Z,26.40
2022-08-11T11:27:49.951Z,26.50
2022-08-11T11:30:18.816Z,26.60
2022-08-11T11:33:13.035Z,26.60
2022-08-11T11:36:11.494Z,26.70
2022-08-11T11:38:41.472Z,26.80
2022-08-11T11:41:25.136Z,26.90
2022-08-11T11:43:57.239Z,26.90
2022-08-11T11:46:31.566Z,27.00
2022-08-11T11:49:13.989Z,27.10
2022-08-11T11:51:50.499Z,27.20
2022-08-11T11:54:25.219Z,27.30
2022-08-11T11:57:18.938Z,27.40
2022-08-11T12:00:08.489Z,27.50
2022-08-11T12:02:40.185Z,27.60
2022-08-11T12:05:10.887Z,27.70
2022-08-11T12:08:10.325Z,27.70
2022-08-11T12:11:21.813Z,27.80
2022-08-11T12:13:53.568Z,27.80
2022-08-11T12:16:34.259Z,27.90
2022-08-11T12:19:11.888Z,28.00
2022-08-11T12:22:01.402Z,28.20
2022-08-11T12:24:50.869Z,28.20
2022-08-11T12:27:24.914Z,28.40
2022-08-11T12:29:59.641Z,28.50
2022-08-11T12:32:32.119Z,28.60
2022-08-11T12:35:01.585Z,28.70
2022-08-11T12:37:40.898Z,28.80
2022-08-11T12:41:16.801Z,28.90
2022-08-11T12:44:05.952Z,29.00
2022-08-11T12:46:37.932Z,29.20
2022-08-11T12:49:34.240Z,29.30
2022-08-11T12:52:13.916Z,29.40
2022-08-11T12:55:13.807Z,29.50
2022-08-11T12:58:07.422Z,29.70
2022-08-11T13:00:54.230Z,29.90
2022-08-11T13:03:42.115Z,29.90
2022-08-11T13:06:11.277Z,30.00
2022-08-11T13:08:40.993Z,30.20
2022-08-11T13:11:54.603Z,30.30
2022-08-11T13:14:18.290Z,30.50
2022-08-11T13:17:05.328Z,30.60
2022-08-11T13:19:34.582Z,30.70
2022-08-11T13:22:05.414Z,30.90
2022-08-11T13:24:34.504Z,31.00
2022-08-11T13:27:03.337Z,31.10
2022-08-11T13:29:31.447Z,31.20
2022-08-11T13:32:00.297Z,31.40
2022-08-11T13:34:32.998Z,31.40
2022-08-11T13:37:02.336Z,31.60
2022-08-11T13:39:33.474Z,31.70
2022-08-11T13:42:03.730Z,31.70
2022-08-11T13:44:37.810Z,31.70
2022-08-11T13:47:09.809Z,31.80
2022-08-11T13:49:41.281Z,31.90
2022-08-11T13:52:19.576Z,32.10
2022-08-11T13:54:51.327Z,32.20
2022-08-11T13:58:09.022Z,32.30
2022-08-11T14:00:23.461Z,32.50
2022-08-11T14:02:58.385Z,32.60
2022-08-11T14:05:41.464Z,32.60
2022-08-11T14:08:37.143Z,32.80
2022-08-11T14:12:22.224Z,32.90
2022-08-11T14:14:25.794Z,33.00
2022-08-11T14:16:57.507Z,33.20
2022-08-11T14:19:27.375Z,33.30
2022-08-11T14:22:08.539Z,33.50
2022-08-11T14:24:44.146Z,33.50
2022-08-11T14:28:30.221Z,33.70
2022-08-11T14:30:01.786Z,33.80
2022-08-11T14:32:30.077Z,34.00
2022-08-11T14:34:58.967Z,34.10
2022-08-11T14:37:29.207Z,34.10
2022-08-11T14:40:03.787Z,34.20
2022-08-11T14:42:50.935Z,34.40
2022-08-11T14:45:58.270Z,34.40
2022-08-11T14:48:26.743Z,34.50
2022-08-11T14:50:56.201Z,34.50
2022-08-11T14:53:24.384Z,34.60
2022-08-11T14:56:12.654Z,34.70
2022-08-11T14:58:42.061Z,34.70
2022-08-11T15:01:30.705Z,34.60
2022-08-11T15:04:33.930Z,34.70
2022-08-11T15:06:48.464Z,34.50
2022-08-11T15:09:16.756Z,34.50
2022-08-11T15:12:03.461Z,34.70
2022-08-11T15:14:50.204Z,34.80
2022-08-11T15:17:25.302Z,34.90
2022-08-11T15:24:50.282Z,34.80
2022-08-11T15:27:40.445Z,34.70
2022-08-11T15:30:33.275Z,34.70
2022-08-11T15:33:26.585Z,34.80
2022-08-11T15:36:15.354Z,34.70
2022-08-11T15:39:19.536Z,34.80
2022-08-11T15:42:18.221Z,34.80
2022-08-11T15:45:15.042Z,34.70
2022-08-11T15:48:02.501Z,34.60
2022-08-11T15:50:42.511Z,34.70
2022-08-11T15:53:39.511Z,34.70
2022-08-11T15:56:09.412Z,34.70
2022-08-11T15:59:40.807Z,34.50
2022-08-11T16:02:30.921Z,34.50
2022-08-11T16:05:02.291Z,34.40
2022-08-11T16:07:38.471Z,34.40
2022-08-11T16:10:19.348Z,34.40
2022-08-11T16:13:06.098Z,34.20
2022-08-11T16:15:59.276Z,34.00
2022-08-11T16:18:40.923Z,33.70
2022-08-11T16:21:40.201Z,33.50
2022-08-11T16:27:01.868Z,33.40
2022-08-11T16:27:13.572Z,33.10
2022-08-11T16:29:46.526Z,33.00
2022-08-11T16:32:23.264Z,32.80
2022-08-11T16:35:37.425Z,32.70
2022-08-11T16:38:25.673Z,32.60
2022-08-11T16:40:55.816Z,32.30
2022-08-11T16:43:46.357Z,32.20
2022-08-11T16:46:40.124Z,32.10
2022-08-11T16:49:22.950Z,32.00
2022-08-11T16:51:52.219Z,31.90
2022-08-11T16:54:21.366Z,31.80
2022-08-11T16:56:55.492Z,31.70
2022-08-11T16:59:32.418Z,31.60
2022-08-11T17:02:07.840Z,31.50
2022-08-11T17:05:13.703Z,31.40
2022-08-11T17:08:03.274Z,31.40
2022-08-11T17:11:03.871Z,31.30
2022-08-11T17:13:57.896Z,31.10
2022-08-11T17:16:40.171Z,31.00
2022-08-11T17:20:40.660Z,30.90
2022-08-11T17:22:28.397Z,30.90
2022-08-11T17:24:59.093Z,30.80
2022-08-11T17:27:28.566Z,30.70
2022-08-11T17:30:04.178Z,30.50
2022-08-11T17:33:00.459Z,30.50
2022-08-11T17:35:38.929Z,30.30
2022-08-11T17:38:17.107Z,30.10
2022-08-11T17:41:23.500Z,29.90
2022-08-11T17:44:12.564Z,29.90
2022-08-11T17:47:05.699Z,29.80
2022-08-11T17:49:38.028Z,29.60
2022-08-11T17:52:26.208Z,29.50
2022-08-11T17:55:13.939Z,29.50
2022-08-11T17:58:01.027Z,29.40
2022-08-11T18:00:31.891Z,29.30
2022-08-11T18:03:19.618Z,29.20
2022-08-11T18:05:49.247Z,29.10
2022-08-11T18:08:37.747Z,29.10
2022-08-11T18:12:10.096Z,28.90
2022-08-11T18:14:34.588Z,28.80
2022-08-11T18:17:21.307Z,28.70
2022-08-11T18:20:07.823Z,28.60
2022-08-11T18:23:01.747Z,28.50
2022-08-11T18:25:57.908Z,28.30
2022-08-11T18:28:54.712Z,28.20
2022-08-11T18:31:43.887Z,28.20
2022-08-11T18:34:34.900Z,28.00
2022-08-11T18:37:48.532Z,27.90
2022-08-11T18:40:46.261Z,27.80
2022-08-11T18:43:38.280Z,27.70
2022-08-11T18:46:28.423Z,27.60
2022-08-11T18:50:01.562Z,27.50
2022-08-11T18:52:36.835Z,27.30
2022-08-11T18:55:29.285Z,27.20
2022-08-11T18:58:19.531Z,27.10
2022-08-11T19:01:07.195Z,27.00
2022-08-11T19:03:56.121Z,26.90
2022-08-11T19:06:58.312Z,26.80
2022-08-11T19:09:45.485Z,26.60
2022-08-11T19:12:34.342Z,26.60
2022-08-11T19:15:23.873Z,26.50
2022-08-11T19:18:12.507Z,26.40
2022-08-11T19:21:02.588Z,26.30
2022-08-11T19:23:57.351Z,26.20
2022-08-11T19:26:44.646Z,26.20
2022-08-11T19:30:07.245Z,26.20
2022-08-11T19:32:42.212Z,26.10
2022-08-11T19:35:30.101Z,26.00
2022-08-11T19:38:18.762Z,25.90
2022-08-11T19:41:06.287Z,25.80
2022-08-11T19:43:53.503Z,25.80
2022-08-11T19:46:43.099Z,25.70
2022-08-11T19:49:30.955Z,25.60
2022-08-11T19:52:18.126Z,25.50
2022-08-11T19:55:05.251Z,25.40
2022-08-11T19:57:54.783Z,25.30
2022-08-11T20:00:42.620Z,25.30
2022-08-11T20:03:31.507Z,25.20
2022-08-11T20:06:26.192Z,25.20
2022-08-11T20:09:18.918Z,25.10
2022-08-11T20:12:10.221Z,25.10
2022-08-11T20:15:00.724Z,25.00
2022-08-11T20:17:51.879Z,24.90
2022-08-11T20:20:41.807Z,24.80
2022-08-11T20:23:34.880Z,24.70
2022-08-11T20:26:31.556Z,24.70
2022-08-11T20:29:20.539Z,24.60
2022-08-11T20:32:09.486Z,24.50
2022-08-11T20:34:58.752Z,24.50
2022-08-11T20:37:50.954Z,24.40
2022-08-11T20:40:44.495Z,24.30
2022-08-11T20:44:06.502Z,24.30
2022-08-11T20:46:45.605Z,24.30
2022-08-11T20:49:45.079Z,24.20
2022-08-11T20:52:47.412Z,24.20
2022-08-11T20:55:51.870Z,24.20
2022-08-11T20:59:13.386Z,24.10
2022-08-11T21:01:52.219Z,24.10
2022-08-11T21:04:53.956Z,24.00
2022-08-11T21:07:55.357Z,23.90
2022-08-11T21:10:51.832Z,24.00
2022-08-11T21:13:43.571Z,23.90
2022-08-11T21:16:41.952Z,23.90
2022-08-11T21:20:06.580Z,23.90
2022-08-11T21:23:06.682Z,23.90
2022-08-11T21:25:59.767Z,23.90
2022-08-11T21:28:48.981Z,23.90
2022-08-11T21:31:38.508Z,23.90
2022-08-11T21:34:27.050Z,24.00
2022-08-11T21:37:13.684Z,24.00
2022-08-11T21:40:01.912Z,24.00
2022-08-11T21:42:53.683Z,24.10
2022-08-11T21:45:41.289Z,24.00
2022-08-11T21:48:30.338Z,24.00
2022-08-11T21:51:17.028Z,23.90
2022-08-11T21:54:04.673Z,23.80
2022-08-11T21:56:52.078Z,23.80
2022-08-11T21:59:50.270Z,23.80
2022-08-11T22:02:37.893Z,23.90
2022-08-11T22:05:26.136Z,23.90
2022-08-11T22:08:13.263Z,24.00
2022-08-11T22:10:59.785Z,24.00
2022-08-11T22:14:06.292Z,24.10
2022-08-11T22:16:53.924Z,24.10
2022-08-11T22:19:42.980Z,24.10
2022-08-11T22:22:31.288Z,24.20
2022-08-11T22:25:18.891Z,24.10
2022-08-11T22:28:07.400Z,24.10
2022-08-11T22:30:53.930Z,24.10
2022-08-11T22:33:45.299Z,24.10
2022-08-11T22:36:48.659Z,24.10
2022-08-11T22:39:36.542Z,24.10
2022-08-11T22:42:30.148Z,24.10
2022-08-11T22:45:21.349Z,24.10
2022-08-11T22:48:09.123Z,24.10
2022-08-11T22:50:59.798Z,24.00
2022-08-11T22:53:57.289Z,23.90
2022-08-11T22:56:50.461Z,23.90
2022-08-11T22:59:38.395Z,23.80
2022-08-11T23:02:25.785Z,23.80
2022-08-11T23:05:12.677Z,23.70
2022-08-11T23:08:00.534Z,23.80
2022-08-11T23:10:47.542Z,23.80
2022-08-11T23:13:34.587Z,23.80
2022-08-11T23:16:21.401Z,23.80
2022-08-11T23:19:08.579Z,23.70
2022-08-11T23:21:56.135Z,23.80
2022-08-11T23:24:44.278Z,23.70
2022-08-11T23:27:32.727Z,23.80
2022-08-11T23:30:20.446Z,23.60
2022-08-11T23:33:12.495Z,23.40
2022-08-11T23:36:05.296Z,23.30
2022-08-11T23:38:52.744Z,23.20
2022-08-11T23:41:39.604Z,23.00
2022-08-11T23:44:27.609Z,22.90
2022-08-11T23:47:20.127Z,23.00
2022-08-11T23:50:07.283Z,23.00
2022-08-11T23:52:55.676Z,23.00
2022-08-11T23:55:42.379Z,23.00
2022-08-11T23:58:30.544Z,23.00
